<?xml version="1.0" encoding="UTF-8" standalone="no" ?>
<gpx xmlns="http://www.topografix.com/GPX/1/1" xmlns:xsi="http://www.w3.org/2001/XMLSchema-instance" xsi:schemaLocation="http://www.topografix.com/GPX/1/1 http://www.topografix.com/GPX/1/1/gpx.xsd" version="1.1" creator="VisuGPX - https://www.visugpx.com">
  <metadata>
    <name>Calanque de Morgiou</name>
    <desc><![CDATA[Difficulté moyenne,site magnifique!]]></desc>
  </metadata>
  <trk>
    <name><![CDATA[Calanque de Morgiou_1]]></name>
    <trkseg>
      <trkpt lat="43.23272" lon="5.43213">
        <ele>164.199996</ele>
        <time>2015-04-08T06:46:07Z</time>
      </trkpt>
      <trkpt lat="43.23272" lon="5.43214">
        <ele>164</ele>
        <time>2015-04-08T06:46:08Z</time>
      </trkpt>
      <trkpt lat="43.23238" lon="5.43206">
        <ele>163.6</ele>
        <time>2015-04-08T06:46:47Z</time>
      </trkpt>
      <trkpt lat="43.23222" lon="5.43201">
        <ele>163.8</ele>
        <time>2015-04-08T06:47:04Z</time>
      </trkpt>
      <trkpt lat="43.23204" lon="5.43202">
        <ele>162.6</ele>
        <time>2015-04-08T06:47:23Z</time>
      </trkpt>
      <trkpt lat="43.23203" lon="5.43202">
        <ele>162.6</ele>
        <time>2015-04-08T06:47:24Z</time>
      </trkpt>
      <trkpt lat="43.2317" lon="5.43213">
        <ele>163</ele>
        <time>2015-04-08T06:48:01Z</time>
      </trkpt>
      <trkpt lat="43.23153" lon="5.43212">
        <ele>164.8</ele>
        <time>2015-04-08T06:48:19Z</time>
      </trkpt>
      <trkpt lat="43.23135" lon="5.43214">
        <ele>166.1</ele>
        <time>2015-04-08T06:48:35Z</time>
      </trkpt>
      <trkpt lat="43.23135" lon="5.43215">
        <ele>166.1</ele>
        <time>2015-04-08T06:48:36Z</time>
      </trkpt>
      <trkpt lat="43.23101" lon="5.43222">
        <ele>165</ele>
        <time>2015-04-08T06:49:14Z</time>
      </trkpt>
      <trkpt lat="43.23084" lon="5.43212">
        <ele>168.6</ele>
        <time>2015-04-08T06:49:31Z</time>
      </trkpt>
      <trkpt lat="43.2307" lon="5.43197">
        <ele>169.1</ele>
        <time>2015-04-08T06:49:46Z</time>
      </trkpt>
      <trkpt lat="43.23069" lon="5.43196">
        <ele>169</ele>
        <time>2015-04-08T06:49:47Z</time>
      </trkpt>
      <trkpt lat="43.2305" lon="5.43159">
        <ele>167.3</ele>
        <time>2015-04-08T06:50:20Z</time>
      </trkpt>
      <trkpt lat="43.23044" lon="5.43136">
        <ele>167</ele>
        <time>2015-04-08T06:50:38Z</time>
      </trkpt>
      <trkpt lat="43.23038" lon="5.43114">
        <ele>167.8</ele>
        <time>2015-04-08T06:50:52Z</time>
      </trkpt>
      <trkpt lat="43.23038" lon="5.43112">
        <ele>168</ele>
        <time>2015-04-08T06:50:53Z</time>
      </trkpt>
      <trkpt lat="43.23026" lon="5.43069">
        <ele>171.8</ele>
        <time>2015-04-08T06:51:22Z</time>
      </trkpt>
      <trkpt lat="43.23019" lon="5.43047">
        <ele>174.3</ele>
        <time>2015-04-08T06:51:36Z</time>
      </trkpt>
      <trkpt lat="43.23013" lon="5.43025">
        <ele>176.3</ele>
        <time>2015-04-08T06:51:53Z</time>
      </trkpt>
      <trkpt lat="43.23012" lon="5.43024">
        <ele>176.3</ele>
        <time>2015-04-08T06:51:54Z</time>
      </trkpt>
      <trkpt lat="43.22985" lon="5.42996">
        <ele>176.1</ele>
        <time>2015-04-08T06:52:35Z</time>
      </trkpt>
      <trkpt lat="43.22977" lon="5.42974">
        <ele>179.8</ele>
        <time>2015-04-08T06:52:47Z</time>
      </trkpt>
      <trkpt lat="43.22979" lon="5.42951">
        <ele>177.6</ele>
        <time>2015-04-08T06:53:04Z</time>
      </trkpt>
      <trkpt lat="43.22978" lon="5.4295">
        <ele>177.3</ele>
        <time>2015-04-08T06:53:05Z</time>
      </trkpt>
      <trkpt lat="43.22989" lon="5.42907">
        <ele>184</ele>
        <time>2015-04-08T06:53:33Z</time>
      </trkpt>
      <trkpt lat="43.22988" lon="5.42883">
        <ele>183.8</ele>
        <time>2015-04-08T06:53:46Z</time>
      </trkpt>
      <trkpt lat="43.22992" lon="5.42859">
        <ele>187</ele>
        <time>2015-04-08T06:54:02Z</time>
      </trkpt>
      <trkpt lat="43.22992" lon="5.42858">
        <ele>186.5</ele>
        <time>2015-04-08T06:54:03Z</time>
      </trkpt>
      <trkpt lat="43.23011" lon="5.4282">
        <ele>173.3</ele>
        <time>2015-04-08T06:54:45Z</time>
      </trkpt>
      <trkpt lat="43.23027" lon="5.42815">
        <ele>185</ele>
        <time>2015-04-08T06:54:54Z</time>
      </trkpt>
      <trkpt lat="43.23044" lon="5.42821">
        <ele>190.5</ele>
        <time>2015-04-08T06:55:08Z</time>
      </trkpt>
      <trkpt lat="43.23045" lon="5.42821">
        <ele>190.3</ele>
        <time>2015-04-08T06:55:09Z</time>
      </trkpt>
      <trkpt lat="43.23078" lon="5.42824">
        <ele>192.8</ele>
        <time>2015-04-08T06:55:37Z</time>
      </trkpt>
      <trkpt lat="43.23095" lon="5.4282">
        <ele>195.6</ele>
        <time>2015-04-08T06:55:53Z</time>
      </trkpt>
      <trkpt lat="43.23112" lon="5.4282">
        <ele>196.8</ele>
        <time>2015-04-08T06:56:06Z</time>
      </trkpt>
      <trkpt lat="43.23128" lon="5.42812">
        <ele>199</ele>
        <time>2015-04-08T06:56:23Z</time>
      </trkpt>
      <trkpt lat="43.23129" lon="5.42811">
        <ele>198.8</ele>
        <time>2015-04-08T06:56:24Z</time>
      </trkpt>
      <trkpt lat="43.23159" lon="5.42793">
        <ele>200.6</ele>
        <time>2015-04-08T06:57:01Z</time>
      </trkpt>
      <trkpt lat="43.23172" lon="5.42776">
        <ele>197.1</ele>
        <time>2015-04-08T06:57:18Z</time>
      </trkpt>
      <trkpt lat="43.23177" lon="5.42754">
        <ele>197.3</ele>
        <time>2015-04-08T06:57:36Z</time>
      </trkpt>
      <trkpt lat="43.23177" lon="5.42753">
        <ele>197.1</ele>
        <time>2015-04-08T06:57:37Z</time>
      </trkpt>
      <trkpt lat="43.23183" lon="5.42706">
        <ele>196.5</ele>
        <time>2015-04-08T06:58:10Z</time>
      </trkpt>
      <trkpt lat="43.23189" lon="5.42684">
        <ele>198</ele>
        <time>2015-04-08T06:58:27Z</time>
      </trkpt>
      <trkpt lat="43.23202" lon="5.42668">
        <ele>204.6</ele>
        <time>2015-04-08T06:58:39Z</time>
      </trkpt>
      <trkpt lat="43.23202" lon="5.42667">
        <ele>204.6</ele>
        <time>2015-04-08T06:58:40Z</time>
      </trkpt>
      <trkpt lat="43.23174" lon="5.42694">
        <ele>212.8</ele>
        <time>2015-04-08T06:59:42Z</time>
      </trkpt>
      <trkpt lat="43.23173" lon="5.42694">
        <ele>212.5</ele>
        <time>2015-04-08T06:59:43Z</time>
      </trkpt>
      <trkpt lat="43.23143" lon="5.42717">
        <ele>210.8</ele>
        <time>2015-04-08T07:00:18Z</time>
      </trkpt>
      <trkpt lat="43.23126" lon="5.42716">
        <ele>222</ele>
        <time>2015-04-08T07:00:32Z</time>
      </trkpt>
      <trkpt lat="43.23109" lon="5.42706">
        <ele>223.3</ele>
        <time>2015-04-08T07:00:48Z</time>
      </trkpt>
      <trkpt lat="43.23108" lon="5.42705">
        <ele>223.3</ele>
        <time>2015-04-08T07:00:49Z</time>
      </trkpt>
      <trkpt lat="43.23075" lon="5.42704">
        <ele>221.1</ele>
        <time>2015-04-08T07:01:18Z</time>
      </trkpt>
      <trkpt lat="43.23057" lon="5.42702">
        <ele>218.8</ele>
        <time>2015-04-08T07:01:33Z</time>
      </trkpt>
      <trkpt lat="43.2304" lon="5.42704">
        <ele>220</ele>
        <time>2015-04-08T07:01:47Z</time>
      </trkpt>
      <trkpt lat="43.23023" lon="5.42705">
        <ele>219.8</ele>
        <time>2015-04-08T07:02:04Z</time>
      </trkpt>
      <trkpt lat="43.23022" lon="5.42705">
        <ele>219.6</ele>
        <time>2015-04-08T07:02:05Z</time>
      </trkpt>
      <trkpt lat="43.22989" lon="5.42718">
        <ele>222.6</ele>
        <time>2015-04-08T07:02:35Z</time>
      </trkpt>
      <trkpt lat="43.22972" lon="5.42724">
        <ele>221.8</ele>
        <time>2015-04-08T07:02:52Z</time>
      </trkpt>
      <trkpt lat="43.22955" lon="5.42731">
        <ele>222.5</ele>
        <time>2015-04-08T07:03:08Z</time>
      </trkpt>
      <trkpt lat="43.22954" lon="5.42731">
        <ele>222.8</ele>
        <time>2015-04-08T07:03:09Z</time>
      </trkpt>
      <trkpt lat="43.22922" lon="5.42722">
        <ele>232.3</ele>
        <time>2015-04-08T07:03:42Z</time>
      </trkpt>
      <trkpt lat="43.22906" lon="5.42712">
        <ele>233</ele>
        <time>2015-04-08T07:03:58Z</time>
      </trkpt>
      <trkpt lat="43.22889" lon="5.42706">
        <ele>232.5</ele>
        <time>2015-04-08T07:04:13Z</time>
      </trkpt>
      <trkpt lat="43.22888" lon="5.42706">
        <ele>232.3</ele>
        <time>2015-04-08T07:04:14Z</time>
      </trkpt>
      <trkpt lat="43.22854" lon="5.42707">
        <ele>227.6</ele>
        <time>2015-04-08T07:04:45Z</time>
      </trkpt>
      <trkpt lat="43.22838" lon="5.42698">
        <ele>230.6</ele>
        <time>2015-04-08T07:05:00Z</time>
      </trkpt>
      <trkpt lat="43.22827" lon="5.4268">
        <ele>233.8</ele>
        <time>2015-04-08T07:05:14Z</time>
      </trkpt>
      <trkpt lat="43.22826" lon="5.42678">
        <ele>234.1</ele>
        <time>2015-04-08T07:05:15Z</time>
      </trkpt>
      <trkpt lat="43.22808" lon="5.42639">
        <ele>237.8</ele>
        <time>2015-04-08T07:05:45Z</time>
      </trkpt>
      <trkpt lat="43.22803" lon="5.42616">
        <ele>236.8</ele>
        <time>2015-04-08T07:06:01Z</time>
      </trkpt>
      <trkpt lat="43.22797" lon="5.42593">
        <ele>238.1</ele>
        <time>2015-04-08T07:06:17Z</time>
      </trkpt>
      <trkpt lat="43.22796" lon="5.42592">
        <ele>238.3</ele>
        <time>2015-04-08T07:06:18Z</time>
      </trkpt>
      <trkpt lat="43.2278" lon="5.42552">
        <ele>246</ele>
        <time>2015-04-08T07:06:43Z</time>
      </trkpt>
      <trkpt lat="43.22769" lon="5.42534">
        <ele>245.8</ele>
        <time>2015-04-08T07:07:00Z</time>
      </trkpt>
      <trkpt lat="43.22758" lon="5.42514">
        <ele>247.6</ele>
        <time>2015-04-08T07:07:17Z</time>
      </trkpt>
      <trkpt lat="43.22756" lon="5.4249">
        <ele>249.8</ele>
        <time>2015-04-08T07:07:34Z</time>
      </trkpt>
      <trkpt lat="43.22756" lon="5.42489">
        <ele>249.8</ele>
        <time>2015-04-08T07:07:35Z</time>
      </trkpt>
      <trkpt lat="43.22741" lon="5.4245">
        <ele>250.3</ele>
        <time>2015-04-08T07:08:05Z</time>
      </trkpt>
      <trkpt lat="43.22723" lon="5.42445">
        <ele>250.1</ele>
        <time>2015-04-08T07:08:21Z</time>
      </trkpt>
      <trkpt lat="43.22706" lon="5.42444">
        <ele>249.3</ele>
        <time>2015-04-08T07:08:36Z</time>
      </trkpt>
      <trkpt lat="43.22705" lon="5.42444">
        <ele>249.1</ele>
        <time>2015-04-08T07:08:37Z</time>
      </trkpt>
      <trkpt lat="43.22671" lon="5.42449">
        <ele>247.5</ele>
        <time>2015-04-08T07:09:08Z</time>
      </trkpt>
      <trkpt lat="43.22654" lon="5.42454">
        <ele>247.3</ele>
        <time>2015-04-08T07:15:59Z</time>
      </trkpt>
      <trkpt lat="43.22653" lon="5.42455">
        <ele>247.6</ele>
        <time>2015-04-08T07:16:00Z</time>
      </trkpt>
      <trkpt lat="43.22636" lon="5.42463">
        <ele>251.8</ele>
        <time>2015-04-08T07:17:14Z</time>
      </trkpt>
      <trkpt lat="43.2261" lon="5.42492">
        <ele>244.6</ele>
        <time>2015-04-08T07:17:56Z</time>
      </trkpt>
      <trkpt lat="43.22599" lon="5.42512">
        <ele>250.1</ele>
        <time>2015-04-08T07:18:12Z</time>
      </trkpt>
      <trkpt lat="43.22587" lon="5.4253">
        <ele>248.6</ele>
        <time>2015-04-08T07:18:30Z</time>
      </trkpt>
      <trkpt lat="43.22586" lon="5.42531">
        <ele>248.6</ele>
        <time>2015-04-08T07:18:31Z</time>
      </trkpt>
      <trkpt lat="43.22567" lon="5.42569">
        <ele>261</ele>
        <time>2015-04-08T07:18:59Z</time>
      </trkpt>
      <trkpt lat="43.22559" lon="5.42592">
        <ele>264.3</ele>
        <time>2015-04-08T07:19:19Z</time>
      </trkpt>
      <trkpt lat="43.22556" lon="5.42615">
        <ele>265.7</ele>
        <time>2015-04-08T07:19:41Z</time>
      </trkpt>
      <trkpt lat="43.22556" lon="5.42617">
        <ele>265.5</ele>
        <time>2015-04-08T07:19:42Z</time>
      </trkpt>
      <trkpt lat="43.22547" lon="5.42622">
        <ele>261.6</ele>
        <time>2015-04-08T07:20:19Z</time>
      </trkpt>
      <trkpt lat="43.22542" lon="5.426">
        <ele>260.5</ele>
        <time>2015-04-08T07:20:36Z</time>
      </trkpt>
      <trkpt lat="43.22542" lon="5.42576">
        <ele>258.2</ele>
        <time>2015-04-08T07:20:53Z</time>
      </trkpt>
      <trkpt lat="43.22543" lon="5.42575">
        <ele>258.5</ele>
        <time>2015-04-08T07:20:54Z</time>
      </trkpt>
      <trkpt lat="43.22552" lon="5.4253">
        <ele>260.7</ele>
        <time>2015-04-08T07:21:26Z</time>
      </trkpt>
      <trkpt lat="43.2254" lon="5.42511">
        <ele>270.2</ele>
        <time>2015-04-08T07:21:46Z</time>
      </trkpt>
      <trkpt lat="43.22534" lon="5.42534">
        <ele>270.6</ele>
        <time>2015-04-08T07:22:16Z</time>
      </trkpt>
      <trkpt lat="43.22533" lon="5.42534">
        <ele>270.7</ele>
        <time>2015-04-08T07:22:17Z</time>
      </trkpt>
      <trkpt lat="43.22513" lon="5.42573">
        <ele>274.7</ele>
        <time>2015-04-08T07:22:56Z</time>
      </trkpt>
      <trkpt lat="43.2251" lon="5.42596">
        <ele>277.1</ele>
        <time>2015-04-08T07:23:13Z</time>
      </trkpt>
      <trkpt lat="43.22513" lon="5.42619">
        <ele>283.7</ele>
        <time>2015-04-08T07:23:27Z</time>
      </trkpt>
      <trkpt lat="43.22513" lon="5.42621">
        <ele>284</ele>
        <time>2015-04-08T07:23:28Z</time>
      </trkpt>
      <trkpt lat="43.22492" lon="5.42658">
        <ele>283.7</ele>
        <time>2015-04-08T07:24:26Z</time>
      </trkpt>
      <trkpt lat="43.22482" lon="5.42679">
        <ele>281.7</ele>
        <time>2015-04-08T07:24:46Z</time>
      </trkpt>
      <trkpt lat="43.22482" lon="5.4268">
        <ele>281.7</ele>
        <time>2015-04-08T07:24:47Z</time>
      </trkpt>
      <trkpt lat="43.22459" lon="5.42714">
        <ele>285.1</ele>
        <time>2015-04-08T07:25:38Z</time>
      </trkpt>
      <trkpt lat="43.22445" lon="5.42729">
        <ele>282.6</ele>
        <time>2015-04-08T07:26:40Z</time>
      </trkpt>
      <trkpt lat="43.22444" lon="5.42729">
        <ele>282.2</ele>
        <time>2015-04-08T07:26:41Z</time>
      </trkpt>
      <trkpt lat="43.22413" lon="5.4275">
        <ele>277.7</ele>
        <time>2015-04-08T07:27:27Z</time>
      </trkpt>
      <trkpt lat="43.22399" lon="5.42765">
        <ele>272.7</ele>
        <time>2015-04-08T07:28:02Z</time>
      </trkpt>
      <trkpt lat="43.22398" lon="5.42765">
        <ele>272.2</ele>
        <time>2015-04-08T07:28:03Z</time>
      </trkpt>
      <trkpt lat="43.22368" lon="5.42785">
        <ele>271.3</ele>
        <time>2015-04-08T07:28:33Z</time>
      </trkpt>
      <trkpt lat="43.22351" lon="5.42793">
        <ele>266.3</ele>
        <time>2015-04-08T07:28:49Z</time>
      </trkpt>
      <trkpt lat="43.22339" lon="5.4281">
        <ele>263.5</ele>
        <time>2015-04-08T07:29:09Z</time>
      </trkpt>
      <trkpt lat="43.22338" lon="5.42811">
        <ele>263.2</ele>
        <time>2015-04-08T07:29:10Z</time>
      </trkpt>
      <trkpt lat="43.22324" lon="5.42853">
        <ele>261</ele>
        <time>2015-04-08T07:29:43Z</time>
      </trkpt>
      <trkpt lat="43.22321" lon="5.42876">
        <ele>259.2</ele>
        <time>2015-04-08T07:30:01Z</time>
      </trkpt>
      <trkpt lat="43.22315" lon="5.42899">
        <ele>256.8</ele>
        <time>2015-04-08T07:30:19Z</time>
      </trkpt>
      <trkpt lat="43.22315" lon="5.429">
        <ele>257.1</ele>
        <time>2015-04-08T07:30:20Z</time>
      </trkpt>
      <trkpt lat="43.22304" lon="5.42944">
        <ele>261.2</ele>
        <time>2015-04-08T07:30:48Z</time>
      </trkpt>
      <trkpt lat="43.22296" lon="5.42964">
        <ele>260.7</ele>
        <time>2015-04-08T07:31:03Z</time>
      </trkpt>
      <trkpt lat="43.22287" lon="5.42986">
        <ele>264</ele>
        <time>2015-04-08T07:31:17Z</time>
      </trkpt>
      <trkpt lat="43.2228" lon="5.43007">
        <ele>264.7</ele>
        <time>2015-04-08T07:31:32Z</time>
      </trkpt>
      <trkpt lat="43.22279" lon="5.43009">
        <ele>264.6</ele>
        <time>2015-04-08T07:31:33Z</time>
      </trkpt>
      <trkpt lat="43.22252" lon="5.43037">
        <ele>261.7</ele>
        <time>2015-04-08T07:32:02Z</time>
      </trkpt>
      <trkpt lat="43.22243" lon="5.43057">
        <ele>259.7</ele>
        <time>2015-04-08T07:32:18Z</time>
      </trkpt>
      <trkpt lat="43.2224" lon="5.4308">
        <ele>258.7</ele>
        <time>2015-04-08T07:32:33Z</time>
      </trkpt>
      <trkpt lat="43.2224" lon="5.43082">
        <ele>258.7</ele>
        <time>2015-04-08T07:32:34Z</time>
      </trkpt>
      <trkpt lat="43.22233" lon="5.43127">
        <ele>260.6</ele>
        <time>2015-04-08T07:33:06Z</time>
      </trkpt>
      <trkpt lat="43.22236" lon="5.43151">
        <ele>261</ele>
        <time>2015-04-08T07:33:25Z</time>
      </trkpt>
      <trkpt lat="43.22233" lon="5.43175">
        <ele>273.8</ele>
        <time>2015-04-08T07:34:11Z</time>
      </trkpt>
      <trkpt lat="43.22233" lon="5.43176">
        <ele>273.7</ele>
        <time>2015-04-08T07:34:12Z</time>
      </trkpt>
      <trkpt lat="43.22253" lon="5.43215">
        <ele>272.1</ele>
        <time>2015-04-08T07:34:55Z</time>
      </trkpt>
      <trkpt lat="43.22265" lon="5.43233">
        <ele>274.8</ele>
        <time>2015-04-08T07:35:15Z</time>
      </trkpt>
      <trkpt lat="43.22266" lon="5.43233">
        <ele>274.8</ele>
        <time>2015-04-08T07:35:16Z</time>
      </trkpt>
      <trkpt lat="43.22262" lon="5.43252">
        <ele>285.5</ele>
        <time>2015-04-08T07:39:58Z</time>
      </trkpt>
      <trkpt lat="43.22261" lon="5.43252">
        <ele>285.6</ele>
        <time>2015-04-08T07:39:59Z</time>
      </trkpt>
      <trkpt lat="43.2223" lon="5.4326">
        <ele>287.6</ele>
        <time>2015-04-08T07:40:44Z</time>
      </trkpt>
      <trkpt lat="43.22231" lon="5.43285">
        <ele>285.2</ele>
        <time>2015-04-08T07:41:03Z</time>
      </trkpt>
      <trkpt lat="43.22231" lon="5.43286">
        <ele>285</ele>
        <time>2015-04-08T07:41:04Z</time>
      </trkpt>
      <trkpt lat="43.22218" lon="5.43329">
        <ele>281.3</ele>
        <time>2015-04-08T07:41:39Z</time>
      </trkpt>
      <trkpt lat="43.22208" lon="5.43349">
        <ele>279.6</ele>
        <time>2015-04-08T07:41:56Z</time>
      </trkpt>
      <trkpt lat="43.22192" lon="5.43361">
        <ele>276.8</ele>
        <time>2015-04-08T07:42:12Z</time>
      </trkpt>
      <trkpt lat="43.22191" lon="5.43362">
        <ele>276.7</ele>
        <time>2015-04-08T07:42:13Z</time>
      </trkpt>
      <trkpt lat="43.22162" lon="5.43385">
        <ele>277.8</ele>
        <time>2015-04-08T07:43:06Z</time>
      </trkpt>
      <trkpt lat="43.22151" lon="5.43405">
        <ele>272.8</ele>
        <time>2015-04-08T07:43:33Z</time>
      </trkpt>
      <trkpt lat="43.2215" lon="5.43405">
        <ele>272.7</ele>
        <time>2015-04-08T07:43:34Z</time>
      </trkpt>
      <trkpt lat="43.22127" lon="5.4344">
        <ele>267.1</ele>
        <time>2015-04-08T07:44:17Z</time>
      </trkpt>
      <trkpt lat="43.22113" lon="5.43456">
        <ele>265</ele>
        <time>2015-04-08T07:44:44Z</time>
      </trkpt>
      <trkpt lat="43.22113" lon="5.43456">
        <ele>264.7</ele>
        <time>2015-04-08T07:44:45Z</time>
      </trkpt>
      <trkpt lat="43.22083" lon="5.43479">
        <ele>258.7</ele>
        <time>2015-04-08T07:45:33Z</time>
      </trkpt>
      <trkpt lat="43.22068" lon="5.43493">
        <ele>252.5</ele>
        <time>2015-04-08T07:46:13Z</time>
      </trkpt>
      <trkpt lat="43.22068" lon="5.43494">
        <ele>252.6</ele>
        <time>2015-04-08T07:46:14Z</time>
      </trkpt>
      <trkpt lat="43.22053" lon="5.43536">
        <ele>243.8</ele>
        <time>2015-04-08T07:47:10Z</time>
      </trkpt>
      <trkpt lat="43.22043" lon="5.43555">
        <ele>243.1</ele>
        <time>2015-04-08T07:48:35Z</time>
      </trkpt>
      <trkpt lat="43.22042" lon="5.43556">
        <ele>243.1</ele>
        <time>2015-04-08T07:48:36Z</time>
      </trkpt>
      <trkpt lat="43.22023" lon="5.43596">
        <ele>239.1</ele>
        <time>2015-04-08T07:49:15Z</time>
      </trkpt>
      <trkpt lat="43.22016" lon="5.43618">
        <ele>235.6</ele>
        <time>2015-04-08T07:49:37Z</time>
      </trkpt>
      <trkpt lat="43.22016" lon="5.43619">
        <ele>235.5</ele>
        <time>2015-04-08T07:49:38Z</time>
      </trkpt>
      <trkpt lat="43.22003" lon="5.43663">
        <ele>233.6</ele>
        <time>2015-04-08T07:50:07Z</time>
      </trkpt>
      <trkpt lat="43.21997" lon="5.43685">
        <ele>234.3</ele>
        <time>2015-04-08T07:50:23Z</time>
      </trkpt>
      <trkpt lat="43.21993" lon="5.43708">
        <ele>233.1</ele>
        <time>2015-04-08T07:50:39Z</time>
      </trkpt>
      <trkpt lat="43.21992" lon="5.43709">
        <ele>233.1</ele>
        <time>2015-04-08T07:50:40Z</time>
      </trkpt>
      <trkpt lat="43.21975" lon="5.4375">
        <ele>230.6</ele>
        <time>2015-04-08T07:51:26Z</time>
      </trkpt>
      <trkpt lat="43.21962" lon="5.43766">
        <ele>227.8</ele>
        <time>2015-04-08T07:51:50Z</time>
      </trkpt>
      <trkpt lat="43.21961" lon="5.43767">
        <ele>227.6</ele>
        <time>2015-04-08T07:51:51Z</time>
      </trkpt>
      <trkpt lat="43.21941" lon="5.43805">
        <ele>220.8</ele>
        <time>2015-04-08T07:52:36Z</time>
      </trkpt>
      <trkpt lat="43.21944" lon="5.43829">
        <ele>215</ele>
        <time>2015-04-08T07:53:01Z</time>
      </trkpt>
      <trkpt lat="43.21944" lon="5.4383">
        <ele>214.8</ele>
        <time>2015-04-08T07:53:02Z</time>
      </trkpt>
      <trkpt lat="43.21968" lon="5.43865">
        <ele>200.6</ele>
        <time>2015-04-08T07:53:55Z</time>
      </trkpt>
      <trkpt lat="43.21978" lon="5.43884">
        <ele>198.1</ele>
        <time>2015-04-08T07:54:16Z</time>
      </trkpt>
      <trkpt lat="43.21979" lon="5.43885">
        <ele>198</ele>
        <time>2015-04-08T07:54:17Z</time>
      </trkpt>
      <trkpt lat="43.2199" lon="5.43928">
        <ele>197.1</ele>
        <time>2015-04-08T07:54:51Z</time>
      </trkpt>
      <trkpt lat="43.21994" lon="5.43951">
        <ele>192.8</ele>
        <time>2015-04-08T07:55:12Z</time>
      </trkpt>
      <trkpt lat="43.21999" lon="5.43974">
        <ele>189.6</ele>
        <time>2015-04-08T07:55:31Z</time>
      </trkpt>
      <trkpt lat="43.21999" lon="5.43975">
        <ele>189.5</ele>
        <time>2015-04-08T07:55:32Z</time>
      </trkpt>
      <trkpt lat="43.22009" lon="5.4402">
        <ele>185.1</ele>
        <time>2015-04-08T07:56:09Z</time>
      </trkpt>
      <trkpt lat="43.22011" lon="5.44044">
        <ele>182.6</ele>
        <time>2015-04-08T07:56:28Z</time>
      </trkpt>
      <trkpt lat="43.22012" lon="5.44068">
        <ele>180.6</ele>
        <time>2015-04-08T07:56:47Z</time>
      </trkpt>
      <trkpt lat="43.22012" lon="5.4407">
        <ele>180.6</ele>
        <time>2015-04-08T07:56:48Z</time>
      </trkpt>
      <trkpt lat="43.21997" lon="5.4411">
        <ele>184.3</ele>
        <time>2015-04-08T07:58:26Z</time>
      </trkpt>
      <trkpt lat="43.21997" lon="5.4411">
        <ele>184.3</ele>
        <time>2015-04-08T07:58:27Z</time>
      </trkpt>
      <trkpt lat="43.21983" lon="5.44126">
        <ele>183.3</ele>
        <time>2015-04-08T08:06:15Z</time>
      </trkpt>
      <trkpt lat="43.21956" lon="5.44156">
        <ele>176.8</ele>
        <time>2015-04-08T08:06:57Z</time>
      </trkpt>
      <trkpt lat="43.21943" lon="5.4417">
        <ele>177.1</ele>
        <time>2015-04-08T08:07:14Z</time>
      </trkpt>
      <trkpt lat="43.21927" lon="5.44182">
        <ele>174.6</ele>
        <time>2015-04-08T08:07:31Z</time>
      </trkpt>
      <trkpt lat="43.21927" lon="5.44182">
        <ele>174.5</ele>
        <time>2015-04-08T08:07:32Z</time>
      </trkpt>
      <trkpt lat="43.21895" lon="5.44197">
        <ele>166.3</ele>
        <time>2015-04-08T08:08:07Z</time>
      </trkpt>
      <trkpt lat="43.21878" lon="5.44191">
        <ele>162.1</ele>
        <time>2015-04-08T08:08:30Z</time>
      </trkpt>
      <trkpt lat="43.21873" lon="5.44167">
        <ele>159.5</ele>
        <time>2015-04-08T08:08:50Z</time>
      </trkpt>
      <trkpt lat="43.21873" lon="5.44166">
        <ele>159.3</ele>
        <time>2015-04-08T08:08:51Z</time>
      </trkpt>
      <trkpt lat="43.21857" lon="5.44125">
        <ele>156.3</ele>
        <time>2015-04-08T08:09:57Z</time>
      </trkpt>
      <trkpt lat="43.21857" lon="5.44124">
        <ele>156</ele>
        <time>2015-04-08T08:09:58Z</time>
      </trkpt>
      <trkpt lat="43.21879" lon="5.44091">
        <ele>141.3</ele>
        <time>2015-04-08T08:10:53Z</time>
      </trkpt>
      <trkpt lat="43.21896" lon="5.44085">
        <ele>141.6</ele>
        <time>2015-04-08T08:11:05Z</time>
      </trkpt>
      <trkpt lat="43.21897" lon="5.44084">
        <ele>141.6</ele>
        <time>2015-04-08T08:11:06Z</time>
      </trkpt>
      <trkpt lat="43.21924" lon="5.44058">
        <ele>143.3</ele>
        <time>2015-04-08T08:11:37Z</time>
      </trkpt>
      <trkpt lat="43.2193" lon="5.44035">
        <ele>131</ele>
        <time>2015-04-08T08:12:02Z</time>
      </trkpt>
      <trkpt lat="43.21915" lon="5.44023">
        <ele>131.1</ele>
        <time>2015-04-08T08:12:39Z</time>
      </trkpt>
      <trkpt lat="43.21914" lon="5.44023">
        <ele>130.3</ele>
        <time>2015-04-08T08:12:40Z</time>
      </trkpt>
      <trkpt lat="43.21879" lon="5.44022">
        <ele>114.5</ele>
        <time>2015-04-08T08:13:32Z</time>
      </trkpt>
      <trkpt lat="43.21863" lon="5.44031">
        <ele>107.5</ele>
        <time>2015-04-08T08:14:06Z</time>
      </trkpt>
      <trkpt lat="43.21862" lon="5.44031">
        <ele>106.5</ele>
        <time>2015-04-08T08:14:07Z</time>
      </trkpt>
      <trkpt lat="43.21833" lon="5.44009">
        <ele>90.8</ele>
        <time>2015-04-08T08:14:57Z</time>
      </trkpt>
      <trkpt lat="43.21818" lon="5.43998">
        <ele>89.5</ele>
        <time>2015-04-08T08:15:18Z</time>
      </trkpt>
      <trkpt lat="43.21817" lon="5.43996">
        <ele>90.1</ele>
        <time>2015-04-08T08:15:19Z</time>
      </trkpt>
      <trkpt lat="43.21805" lon="5.43953">
        <ele>76</ele>
        <time>2015-04-08T08:16:05Z</time>
      </trkpt>
      <trkpt lat="43.21802" lon="5.43929">
        <ele>86.5</ele>
        <time>2015-04-08T08:16:25Z</time>
      </trkpt>
      <trkpt lat="43.21801" lon="5.43929">
        <ele>86.3</ele>
        <time>2015-04-08T08:16:26Z</time>
      </trkpt>
      <trkpt lat="43.21787" lon="5.43945">
        <ele>90.6</ele>
        <time>2015-04-08T08:17:34Z</time>
      </trkpt>
      <trkpt lat="43.21753" lon="5.43945">
        <ele>52.2</ele>
        <time>2015-04-08T08:18:37Z</time>
      </trkpt>
      <trkpt lat="43.21752" lon="5.43942">
        <ele>56.7</ele>
        <time>2015-04-08T08:18:38Z</time>
      </trkpt>
      <trkpt lat="43.21731" lon="5.43913">
        <ele>46.7</ele>
        <time>2015-04-08T08:19:23Z</time>
      </trkpt>
      <trkpt lat="43.21721" lon="5.43893">
        <ele>60.5</ele>
        <time>2015-04-08T08:19:46Z</time>
      </trkpt>
      <trkpt lat="43.2172" lon="5.43892">
        <ele>61.9</ele>
        <time>2015-04-08T08:19:47Z</time>
      </trkpt>
      <trkpt lat="43.21696" lon="5.43859">
        <ele>57</ele>
        <time>2015-04-08T08:21:12Z</time>
      </trkpt>
      <trkpt lat="43.21695" lon="5.43858">
        <ele>57</ele>
        <time>2015-04-08T08:21:13Z</time>
      </trkpt>
      <trkpt lat="43.21667" lon="5.43831">
        <ele>25.6</ele>
        <time>2015-04-08T08:22:30Z</time>
      </trkpt>
      <trkpt lat="43.21666" lon="5.43831">
        <ele>24.7</ele>
        <time>2015-04-08T08:22:31Z</time>
      </trkpt>
      <trkpt lat="43.21658" lon="5.43809">
        <ele>24</ele>
        <time>2015-04-08T08:29:08Z</time>
      </trkpt>
      <trkpt lat="43.21645" lon="5.43782">
        <ele>21.1</ele>
        <time>2015-04-08T08:31:26Z</time>
      </trkpt>
      <trkpt lat="43.21644" lon="5.43782">
        <ele>21.7</ele>
        <time>2015-04-08T08:31:27Z</time>
      </trkpt>
      <trkpt lat="43.21611" lon="5.43773">
        <ele>26.6</ele>
        <time>2015-04-08T08:33:05Z</time>
      </trkpt>
      <trkpt lat="43.2161" lon="5.43773">
        <ele>25.7</ele>
        <time>2015-04-08T08:33:06Z</time>
      </trkpt>
      <trkpt lat="43.21577" lon="5.43782">
        <ele>15.1</ele>
        <time>2015-04-08T08:34:04Z</time>
      </trkpt>
      <trkpt lat="43.21565" lon="5.43801">
        <ele>10.8</ele>
        <time>2015-04-08T08:34:24Z</time>
      </trkpt>
      <trkpt lat="43.21564" lon="5.43802">
        <ele>10.6</ele>
        <time>2015-04-08T08:34:25Z</time>
      </trkpt>
      <trkpt lat="43.21548" lon="5.43841">
        <ele>11.6</ele>
        <time>2015-04-08T08:34:55Z</time>
      </trkpt>
      <trkpt lat="43.21539" lon="5.43861">
        <ele>11.6</ele>
        <time>2015-04-08T08:35:11Z</time>
      </trkpt>
      <trkpt lat="43.21529" lon="5.43881">
        <ele>12.1</ele>
        <time>2015-04-08T08:35:27Z</time>
      </trkpt>
      <trkpt lat="43.21528" lon="5.43882">
        <ele>12.1</ele>
        <time>2015-04-08T08:35:28Z</time>
      </trkpt>
      <trkpt lat="43.21512" lon="5.43921">
        <ele>11</ele>
        <time>2015-04-08T08:35:53Z</time>
      </trkpt>
      <trkpt lat="43.21498" lon="5.43934">
        <ele>5.3</ele>
        <time>2015-04-08T08:36:07Z</time>
      </trkpt>
      <trkpt lat="43.21481" lon="5.4394">
        <ele>8.1</ele>
        <time>2015-04-08T08:36:20Z</time>
      </trkpt>
      <trkpt lat="43.21463" lon="5.43944">
        <ele>10</ele>
        <time>2015-04-08T08:36:35Z</time>
      </trkpt>
      <trkpt lat="43.21462" lon="5.43944">
        <ele>10.3</ele>
        <time>2015-04-08T08:36:36Z</time>
      </trkpt>
      <trkpt lat="43.21437" lon="5.43972">
        <ele>14.5</ele>
        <time>2015-04-08T08:37:14Z</time>
      </trkpt>
      <trkpt lat="43.21427" lon="5.4399">
        <ele>13.1</ele>
        <time>2015-04-08T08:37:31Z</time>
      </trkpt>
      <trkpt lat="43.21416" lon="5.4401">
        <ele>11.8</ele>
        <time>2015-04-08T08:37:59Z</time>
      </trkpt>
      <trkpt lat="43.21416" lon="5.44011">
        <ele>11.6</ele>
        <time>2015-04-08T08:38:00Z</time>
      </trkpt>
      <trkpt lat="43.21412" lon="5.44056">
        <ele>1.2</ele>
        <time>2015-04-08T08:38:31Z</time>
      </trkpt>
      <trkpt lat="43.21406" lon="5.44079">
        <ele>-2.9</ele>
        <time>2015-04-08T08:38:45Z</time>
      </trkpt>
      <trkpt lat="43.21396" lon="5.44099">
        <ele>-0.2</ele>
        <time>2015-04-08T08:39:00Z</time>
      </trkpt>
      <trkpt lat="43.21396" lon="5.44101">
        <ele>-0.1</ele>
        <time>2015-04-08T08:39:01Z</time>
      </trkpt>
      <trkpt lat="43.21373" lon="5.44134">
        <ele>-9.5</ele>
        <time>2015-04-08T08:39:28Z</time>
      </trkpt>
      <trkpt lat="43.21355" lon="5.44138">
        <ele>0.1</ele>
        <time>2015-04-08T08:39:42Z</time>
      </trkpt>
      <trkpt lat="43.21338" lon="5.44147">
        <ele>5.5</ele>
        <time>2015-04-08T08:39:59Z</time>
      </trkpt>
      <trkpt lat="43.21331" lon="5.44169">
        <ele>0.6</ele>
        <time>2015-04-08T08:40:16Z</time>
      </trkpt>
      <trkpt lat="43.21331" lon="5.4417">
        <ele>1.1</ele>
        <time>2015-04-08T08:40:17Z</time>
      </trkpt>
      <trkpt lat="43.2132" lon="5.44215">
        <ele>5</ele>
        <time>2015-04-08T08:40:49Z</time>
      </trkpt>
      <trkpt lat="43.21314" lon="5.44237">
        <ele>6.3</ele>
        <time>2015-04-08T08:41:07Z</time>
      </trkpt>
      <trkpt lat="43.21308" lon="5.44259">
        <ele>5.4</ele>
        <time>2015-04-08T08:41:25Z</time>
      </trkpt>
      <trkpt lat="43.21308" lon="5.44261">
        <ele>5.6</ele>
        <time>2015-04-08T08:41:26Z</time>
      </trkpt>
      <trkpt lat="43.21291" lon="5.443">
        <ele>6.8</ele>
        <time>2015-04-08T08:41:54Z</time>
      </trkpt>
      <trkpt lat="43.2128" lon="5.44318">
        <ele>1.6</ele>
        <time>2015-04-08T08:42:12Z</time>
      </trkpt>
      <trkpt lat="43.21267" lon="5.44335">
        <ele>2.7</ele>
        <time>2015-04-08T08:45:38Z</time>
      </trkpt>
      <trkpt lat="43.21267" lon="5.44336">
        <ele>2.2</ele>
        <time>2015-04-08T08:45:39Z</time>
      </trkpt>
      <trkpt lat="43.21268" lon="5.44337">
        <ele>3.9</ele>
        <time>2015-04-08T08:51:07Z</time>
      </trkpt>
      <trkpt lat="43.21268" lon="5.44335">
        <ele>4</ele>
        <time>2015-04-08T08:51:08Z</time>
      </trkpt>
      <trkpt lat="43.21291" lon="5.443">
        <ele>3.2</ele>
        <time>2015-04-08T08:51:55Z</time>
      </trkpt>
      <trkpt lat="43.21301" lon="5.4428">
        <ele>5</ele>
        <time>2015-04-08T08:52:12Z</time>
      </trkpt>
      <trkpt lat="43.21302" lon="5.44279">
        <ele>5.1</ele>
        <time>2015-04-08T08:52:13Z</time>
      </trkpt>
      <trkpt lat="43.21314" lon="5.44236">
        <ele>2.7</ele>
        <time>2015-04-08T08:52:45Z</time>
      </trkpt>
      <trkpt lat="43.21322" lon="5.44215">
        <ele>0.8</ele>
        <time>2015-04-08T08:53:01Z</time>
      </trkpt>
      <trkpt lat="43.21326" lon="5.44192">
        <ele>-5.5</ele>
        <time>2015-04-08T08:53:20Z</time>
      </trkpt>
      <trkpt lat="43.21326" lon="5.4419">
        <ele>-6</ele>
        <time>2015-04-08T08:53:21Z</time>
      </trkpt>
      <trkpt lat="43.21338" lon="5.44148">
        <ele>-5.9</ele>
        <time>2015-04-08T08:53:52Z</time>
      </trkpt>
      <trkpt lat="43.21355" lon="5.4414">
        <ele>-0.5</ele>
        <time>2015-04-08T08:54:05Z</time>
      </trkpt>
      <trkpt lat="43.21372" lon="5.44133">
        <ele>5.3</ele>
        <time>2015-04-08T08:54:22Z</time>
      </trkpt>
      <trkpt lat="43.21373" lon="5.44132">
        <ele>5.9</ele>
        <time>2015-04-08T08:54:23Z</time>
      </trkpt>
      <trkpt lat="43.21397" lon="5.44101">
        <ele>5.6</ele>
        <time>2015-04-08T08:54:59Z</time>
      </trkpt>
      <trkpt lat="43.21404" lon="5.44079">
        <ele>3.7</ele>
        <time>2015-04-08T08:55:18Z</time>
      </trkpt>
      <trkpt lat="43.214" lon="5.44056">
        <ele>11</ele>
        <time>2015-04-08T08:55:33Z</time>
      </trkpt>
      <trkpt lat="43.21399" lon="5.44055">
        <ele>11.3</ele>
        <time>2015-04-08T08:55:34Z</time>
      </trkpt>
      <trkpt lat="43.21414" lon="5.44014">
        <ele>15</ele>
        <time>2015-04-08T08:56:02Z</time>
      </trkpt>
      <trkpt lat="43.21427" lon="5.43996">
        <ele>9.8</ele>
        <time>2015-04-08T08:56:18Z</time>
      </trkpt>
      <trkpt lat="43.21438" lon="5.43979">
        <ele>14.1</ele>
        <time>2015-04-08T08:56:32Z</time>
      </trkpt>
      <trkpt lat="43.21421" lon="5.43973">
        <ele>17.6</ele>
        <time>2015-04-08T08:59:30Z</time>
      </trkpt>
      <trkpt lat="43.2142" lon="5.43973">
        <ele>17.2</ele>
        <time>2015-04-08T08:59:31Z</time>
      </trkpt>
      <trkpt lat="43.21404" lon="5.43964">
        <ele>21.1</ele>
        <time>2015-04-08T09:00:33Z</time>
      </trkpt>
      <trkpt lat="43.21394" lon="5.43945">
        <ele>36</ele>
        <time>2015-04-08T09:02:11Z</time>
      </trkpt>
      <trkpt lat="43.21387" lon="5.43901">
        <ele>42.7</ele>
        <time>2015-04-08T09:04:10Z</time>
      </trkpt>
      <trkpt lat="43.21387" lon="5.43901">
        <ele>42.5</ele>
        <time>2015-04-08T09:04:11Z</time>
      </trkpt>
      <trkpt lat="43.21369" lon="5.43904">
        <ele>59.2</ele>
        <time>2015-04-08T09:05:37Z</time>
      </trkpt>
      <trkpt lat="43.21344" lon="5.43935">
        <ele>51</ele>
        <time>2015-04-08T09:06:27Z</time>
      </trkpt>
      <trkpt lat="43.2133" lon="5.4395">
        <ele>59.5</ele>
        <time>2015-04-08T09:06:49Z</time>
      </trkpt>
      <trkpt lat="43.21329" lon="5.43951">
        <ele>60</ele>
        <time>2015-04-08T09:06:50Z</time>
      </trkpt>
      <trkpt lat="43.21336" lon="5.43926">
        <ele>61.2</ele>
        <time>2015-04-08T09:08:57Z</time>
      </trkpt>
      <trkpt lat="43.21351" lon="5.43882">
        <ele>71.9</ele>
        <time>2015-04-08T09:09:55Z</time>
      </trkpt>
      <trkpt lat="43.21353" lon="5.43858">
        <ele>78.6</ele>
        <time>2015-04-08T09:10:26Z</time>
      </trkpt>
      <trkpt lat="43.21353" lon="5.43858">
        <ele>79.6</ele>
        <time>2015-04-08T09:10:27Z</time>
      </trkpt>
      <trkpt lat="43.21365" lon="5.43818">
        <ele>80.3</ele>
        <time>2015-04-08T09:11:44Z</time>
      </trkpt>
      <trkpt lat="43.21365" lon="5.43817">
        <ele>80</ele>
        <time>2015-04-08T09:11:45Z</time>
      </trkpt>
      <trkpt lat="43.21362" lon="5.43771">
        <ele>91.9</ele>
        <time>2015-04-08T09:12:17Z</time>
      </trkpt>
      <trkpt lat="43.2136" lon="5.43748">
        <ele>85.9</ele>
        <time>2015-04-08T09:12:40Z</time>
      </trkpt>
      <trkpt lat="43.21374" lon="5.43733">
        <ele>86.1</ele>
        <time>2015-04-08T09:13:08Z</time>
      </trkpt>
      <trkpt lat="43.21375" lon="5.43733">
        <ele>86.3</ele>
        <time>2015-04-08T09:13:09Z</time>
      </trkpt>
      <trkpt lat="43.21407" lon="5.43716">
        <ele>100.5</ele>
        <time>2015-04-08T09:14:05Z</time>
      </trkpt>
      <trkpt lat="43.21421" lon="5.437">
        <ele>108.1</ele>
        <time>2015-04-08T09:14:36Z</time>
      </trkpt>
      <trkpt lat="43.21421" lon="5.43699">
        <ele>108.4</ele>
        <time>2015-04-08T09:14:37Z</time>
      </trkpt>
      <trkpt lat="43.2143" lon="5.43655">
        <ele>106.1</ele>
        <time>2015-04-08T09:15:30Z</time>
      </trkpt>
      <trkpt lat="43.21436" lon="5.43633">
        <ele>110.4</ele>
        <time>2015-04-08T09:15:53Z</time>
      </trkpt>
      <trkpt lat="43.21437" lon="5.43632">
        <ele>110.8</ele>
        <time>2015-04-08T09:15:54Z</time>
      </trkpt>
      <trkpt lat="43.21454" lon="5.43592">
        <ele>112.9</ele>
        <time>2015-04-08T09:16:37Z</time>
      </trkpt>
      <trkpt lat="43.21463" lon="5.43571">
        <ele>117</ele>
        <time>2015-04-08T09:17:10Z</time>
      </trkpt>
      <trkpt lat="43.21464" lon="5.43571">
        <ele>117.5</ele>
        <time>2015-04-08T09:17:11Z</time>
      </trkpt>
      <trkpt lat="43.21471" lon="5.43549">
        <ele>129.8</ele>
        <time>2015-04-08T09:18:33Z</time>
      </trkpt>
      <trkpt lat="43.21496" lon="5.43515">
        <ele>141.1</ele>
        <time>2015-04-08T09:19:59Z</time>
      </trkpt>
      <trkpt lat="43.21497" lon="5.43515">
        <ele>141.1</ele>
        <time>2015-04-08T09:20:00Z</time>
      </trkpt>
      <trkpt lat="43.21495" lon="5.43469">
        <ele>146.5</ele>
        <time>2015-04-08T09:22:19Z</time>
      </trkpt>
      <trkpt lat="43.21495" lon="5.43469">
        <ele>146.6</ele>
        <time>2015-04-08T09:22:20Z</time>
      </trkpt>
      <trkpt lat="43.2148" lon="5.43454">
        <ele>150.8</ele>
        <time>2015-04-08T09:23:26Z</time>
      </trkpt>
      <trkpt lat="43.21453" lon="5.43427">
        <ele>158</ele>
        <time>2015-04-08T09:24:22Z</time>
      </trkpt>
      <trkpt lat="43.21444" lon="5.43407">
        <ele>160.1</ele>
        <time>2015-04-08T09:24:42Z</time>
      </trkpt>
      <trkpt lat="43.21443" lon="5.43406">
        <ele>160.5</ele>
        <time>2015-04-08T09:24:43Z</time>
      </trkpt>
      <trkpt lat="43.21428" lon="5.43365">
        <ele>164.6</ele>
        <time>2015-04-08T09:25:42Z</time>
      </trkpt>
      <trkpt lat="43.21414" lon="5.4335">
        <ele>168.3</ele>
        <time>2015-04-08T09:26:09Z</time>
      </trkpt>
      <trkpt lat="43.21414" lon="5.4335">
        <ele>168.3</ele>
        <time>2015-04-08T09:26:10Z</time>
      </trkpt>
      <trkpt lat="43.21404" lon="5.43329">
        <ele>170.1</ele>
        <time>2015-04-08T09:27:11Z</time>
      </trkpt>
      <trkpt lat="43.21399" lon="5.43286">
        <ele>169.3</ele>
        <time>2015-04-08T09:28:03Z</time>
      </trkpt>
      <trkpt lat="43.21389" lon="5.43265">
        <ele>164.1</ele>
        <time>2015-04-08T09:28:32Z</time>
      </trkpt>
      <trkpt lat="43.21389" lon="5.43265">
        <ele>163.8</ele>
        <time>2015-04-08T09:28:33Z</time>
      </trkpt>
      <trkpt lat="43.21355" lon="5.43265">
        <ele>176.6</ele>
        <time>2015-04-08T09:30:05Z</time>
      </trkpt>
      <trkpt lat="43.21355" lon="5.43264">
        <ele>176.8</ele>
        <time>2015-04-08T09:30:06Z</time>
      </trkpt>
      <trkpt lat="43.21369" lon="5.43222">
        <ele>186.3</ele>
        <time>2015-04-08T09:31:01Z</time>
      </trkpt>
      <trkpt lat="43.2137" lon="5.43199">
        <ele>189.8</ele>
        <time>2015-04-08T09:31:22Z</time>
      </trkpt>
      <trkpt lat="43.21371" lon="5.43198">
        <ele>190</ele>
        <time>2015-04-08T09:31:23Z</time>
      </trkpt>
      <trkpt lat="43.21382" lon="5.43153">
        <ele>192.5</ele>
        <time>2015-04-08T09:32:30Z</time>
      </trkpt>
      <trkpt lat="43.21382" lon="5.43152">
        <ele>193.3</ele>
        <time>2015-04-08T09:32:31Z</time>
      </trkpt>
      <trkpt lat="43.21394" lon="5.4313">
        <ele>203.8</ele>
        <time>2015-04-08T09:34:32Z</time>
      </trkpt>
      <trkpt lat="43.21393" lon="5.43129">
        <ele>203.8</ele>
        <time>2015-04-08T09:34:33Z</time>
      </trkpt>
      <trkpt lat="43.21362" lon="5.43134">
        <ele>211.6</ele>
        <time>2015-04-08T09:35:27Z</time>
      </trkpt>
      <trkpt lat="43.21352" lon="5.43154">
        <ele>213.5</ele>
        <time>2015-04-08T09:35:49Z</time>
      </trkpt>
      <trkpt lat="43.21351" lon="5.43155">
        <ele>213.5</ele>
        <time>2015-04-08T09:35:50Z</time>
      </trkpt>
      <trkpt lat="43.21326" lon="5.43186">
        <ele>217.6</ele>
        <time>2015-04-08T09:36:32Z</time>
      </trkpt>
      <trkpt lat="43.2131" lon="5.43196">
        <ele>221</ele>
        <time>2015-04-08T09:36:58Z</time>
      </trkpt>
      <trkpt lat="43.21309" lon="5.43197">
        <ele>221.1</ele>
        <time>2015-04-08T09:36:59Z</time>
      </trkpt>
      <trkpt lat="43.21286" lon="5.43232">
        <ele>227.8</ele>
        <time>2015-04-08T09:38:01Z</time>
      </trkpt>
      <trkpt lat="43.21285" lon="5.43232">
        <ele>227.8</ele>
        <time>2015-04-08T09:38:02Z</time>
      </trkpt>
      <trkpt lat="43.21268" lon="5.43214">
        <ele>233.5</ele>
        <time>2015-04-08T09:46:19Z</time>
      </trkpt>
      <trkpt lat="43.21268" lon="5.43214">
        <ele>233.3</ele>
        <time>2015-04-08T09:46:20Z</time>
      </trkpt>
      <trkpt lat="43.21287" lon="5.43174">
        <ele>232.1</ele>
        <time>2015-04-08T09:47:14Z</time>
      </trkpt>
      <trkpt lat="43.21291" lon="5.43151">
        <ele>233.5</ele>
        <time>2015-04-08T09:47:39Z</time>
      </trkpt>
      <trkpt lat="43.21292" lon="5.4315">
        <ele>233.3</ele>
        <time>2015-04-08T09:47:40Z</time>
      </trkpt>
      <trkpt lat="43.21309" lon="5.43111">
        <ele>234.8</ele>
        <time>2015-04-08T09:48:24Z</time>
      </trkpt>
      <trkpt lat="43.21317" lon="5.43089">
        <ele>235.3</ele>
        <time>2015-04-08T09:48:44Z</time>
      </trkpt>
      <trkpt lat="43.21317" lon="5.43088">
        <ele>235.3</ele>
        <time>2015-04-08T09:48:45Z</time>
      </trkpt>
      <trkpt lat="43.21332" lon="5.43045">
        <ele>230.6</ele>
        <time>2015-04-08T09:49:41Z</time>
      </trkpt>
      <trkpt lat="43.21341" lon="5.43024">
        <ele>229.8</ele>
        <time>2015-04-08T09:50:06Z</time>
      </trkpt>
      <trkpt lat="43.21342" lon="5.43024">
        <ele>229.8</ele>
        <time>2015-04-08T09:50:07Z</time>
      </trkpt>
      <trkpt lat="43.21363" lon="5.42985">
        <ele>229.6</ele>
        <time>2015-04-08T11:19:33Z</time>
      </trkpt>
      <trkpt lat="43.21363" lon="5.42985">
        <ele>229.6</ele>
        <time>2015-04-08T11:19:34Z</time>
      </trkpt>
      <trkpt lat="43.21373" lon="5.42964">
        <ele>229.8</ele>
        <time>2015-04-08T11:20:47Z</time>
      </trkpt>
      <trkpt lat="43.21396" lon="5.4293">
        <ele>226.6</ele>
        <time>2015-04-08T11:21:45Z</time>
      </trkpt>
      <trkpt lat="43.21402" lon="5.42906">
        <ele>228.1</ele>
        <time>2015-04-08T11:22:05Z</time>
      </trkpt>
      <trkpt lat="43.21402" lon="5.42905">
        <ele>228.1</ele>
        <time>2015-04-08T11:22:06Z</time>
      </trkpt>
      <trkpt lat="43.21411" lon="5.4286">
        <ele>228.3</ele>
        <time>2015-04-08T11:23:05Z</time>
      </trkpt>
      <trkpt lat="43.21414" lon="5.42836">
        <ele>226.8</ele>
        <time>2015-04-08T11:23:51Z</time>
      </trkpt>
      <trkpt lat="43.21414" lon="5.42835">
        <ele>227.6</ele>
        <time>2015-04-08T11:23:52Z</time>
      </trkpt>
      <trkpt lat="43.2143" lon="5.42792">
        <ele>232.1</ele>
        <time>2015-04-08T11:25:34Z</time>
      </trkpt>
      <trkpt lat="43.21431" lon="5.42792">
        <ele>232</ele>
        <time>2015-04-08T11:25:35Z</time>
      </trkpt>
      <trkpt lat="43.21456" lon="5.42759">
        <ele>245.1</ele>
        <time>2015-04-08T11:27:25Z</time>
      </trkpt>
      <trkpt lat="43.21456" lon="5.42758">
        <ele>245.1</ele>
        <time>2015-04-08T11:27:26Z</time>
      </trkpt>
      <trkpt lat="43.21489" lon="5.42745">
        <ele>247.6</ele>
        <time>2015-04-08T11:28:21Z</time>
      </trkpt>
      <trkpt lat="43.21507" lon="5.42743">
        <ele>246.6</ele>
        <time>2015-04-08T11:28:49Z</time>
      </trkpt>
      <trkpt lat="43.21507" lon="5.42742">
        <ele>246.6</ele>
        <time>2015-04-08T11:28:50Z</time>
      </trkpt>
      <trkpt lat="43.21531" lon="5.42708">
        <ele>246.3</ele>
        <time>2015-04-08T11:29:39Z</time>
      </trkpt>
      <trkpt lat="43.21545" lon="5.42693">
        <ele>248.3</ele>
        <time>2015-04-08T11:30:10Z</time>
      </trkpt>
      <trkpt lat="43.21545" lon="5.42693">
        <ele>248.3</ele>
        <time>2015-04-08T11:30:11Z</time>
      </trkpt>
      <trkpt lat="43.2157" lon="5.4266">
        <ele>258.7</ele>
        <time>2015-04-08T11:31:25Z</time>
      </trkpt>
      <trkpt lat="43.21571" lon="5.4266">
        <ele>258.8</ele>
        <time>2015-04-08T11:31:26Z</time>
      </trkpt>
      <trkpt lat="43.21601" lon="5.42648">
        <ele>263.3</ele>
        <time>2015-04-08T11:32:58Z</time>
      </trkpt>
      <trkpt lat="43.21601" lon="5.42647">
        <ele>263.5</ele>
        <time>2015-04-08T11:32:59Z</time>
      </trkpt>
      <trkpt lat="43.21616" lon="5.42634">
        <ele>260.7</ele>
        <time>2015-04-08T11:35:37Z</time>
      </trkpt>
      <trkpt lat="43.2164" lon="5.426">
        <ele>252.6</ele>
        <time>2015-04-08T11:36:46Z</time>
      </trkpt>
      <trkpt lat="43.2164" lon="5.426">
        <ele>252.3</ele>
        <time>2015-04-08T11:36:47Z</time>
      </trkpt>
      <trkpt lat="43.21667" lon="5.42569">
        <ele>244.8</ele>
        <time>2015-04-08T11:37:44Z</time>
      </trkpt>
      <trkpt lat="43.21684" lon="5.42564">
        <ele>242</ele>
        <time>2015-04-08T11:38:11Z</time>
      </trkpt>
      <trkpt lat="43.21685" lon="5.42563">
        <ele>242</ele>
        <time>2015-04-08T11:38:12Z</time>
      </trkpt>
      <trkpt lat="43.21712" lon="5.42535">
        <ele>240</ele>
        <time>2015-04-08T11:38:54Z</time>
      </trkpt>
      <trkpt lat="43.21727" lon="5.42522">
        <ele>237.6</ele>
        <time>2015-04-08T11:39:14Z</time>
      </trkpt>
      <trkpt lat="43.21727" lon="5.42522">
        <ele>237.3</ele>
        <time>2015-04-08T11:39:15Z</time>
      </trkpt>
      <trkpt lat="43.21758" lon="5.42501">
        <ele>231.6</ele>
        <time>2015-04-08T11:39:52Z</time>
      </trkpt>
      <trkpt lat="43.21775" lon="5.42497">
        <ele>229.3</ele>
        <time>2015-04-08T11:40:07Z</time>
      </trkpt>
      <trkpt lat="43.21792" lon="5.42492">
        <ele>230.1</ele>
        <time>2015-04-08T11:40:22Z</time>
      </trkpt>
      <trkpt lat="43.21793" lon="5.42492">
        <ele>230.3</ele>
        <time>2015-04-08T11:40:23Z</time>
      </trkpt>
      <trkpt lat="43.21826" lon="5.42483">
        <ele>232.3</ele>
        <time>2015-04-08T11:40:56Z</time>
      </trkpt>
      <trkpt lat="43.21841" lon="5.42472">
        <ele>232.8</ele>
        <time>2015-04-08T11:41:14Z</time>
      </trkpt>
      <trkpt lat="43.21849" lon="5.4245">
        <ele>232</ele>
        <time>2015-04-08T11:41:35Z</time>
      </trkpt>
      <trkpt lat="43.2185" lon="5.42449">
        <ele>232.1</ele>
        <time>2015-04-08T11:41:36Z</time>
      </trkpt>
      <trkpt lat="43.21865" lon="5.42407">
        <ele>223.8</ele>
        <time>2015-04-08T11:42:16Z</time>
      </trkpt>
      <trkpt lat="43.21874" lon="5.42386">
        <ele>221.1</ele>
        <time>2015-04-08T11:42:44Z</time>
      </trkpt>
      <trkpt lat="43.21875" lon="5.42385">
        <ele>221.3</ele>
        <time>2015-04-08T11:42:45Z</time>
      </trkpt>
      <trkpt lat="43.21891" lon="5.42344">
        <ele>214.6</ele>
        <time>2015-04-08T11:43:35Z</time>
      </trkpt>
      <trkpt lat="43.21904" lon="5.42328">
        <ele>213</ele>
        <time>2015-04-08T11:43:52Z</time>
      </trkpt>
      <trkpt lat="43.21905" lon="5.42327">
        <ele>212.8</ele>
        <time>2015-04-08T11:43:53Z</time>
      </trkpt>
      <trkpt lat="43.21931" lon="5.42298">
        <ele>214.3</ele>
        <time>2015-04-08T11:44:32Z</time>
      </trkpt>
      <trkpt lat="43.21941" lon="5.42277">
        <ele>216.6</ele>
        <time>2015-04-08T11:44:51Z</time>
      </trkpt>
      <trkpt lat="43.21953" lon="5.42259">
        <ele>218.3</ele>
        <time>2015-04-08T11:45:10Z</time>
      </trkpt>
      <trkpt lat="43.21954" lon="5.42259">
        <ele>218.3</ele>
        <time>2015-04-08T11:45:11Z</time>
      </trkpt>
      <trkpt lat="43.21986" lon="5.42243">
        <ele>218</ele>
        <time>2015-04-08T11:45:46Z</time>
      </trkpt>
      <trkpt lat="43.22003" lon="5.42233">
        <ele>217.6</ele>
        <time>2015-04-08T11:46:01Z</time>
      </trkpt>
      <trkpt lat="43.22018" lon="5.42222">
        <ele>218.1</ele>
        <time>2015-04-08T11:46:15Z</time>
      </trkpt>
      <trkpt lat="43.22019" lon="5.42222">
        <ele>218.1</ele>
        <time>2015-04-08T11:46:16Z</time>
      </trkpt>
      <trkpt lat="43.22051" lon="5.4221">
        <ele>218.8</ele>
        <time>2015-04-08T11:46:46Z</time>
      </trkpt>
      <trkpt lat="43.22067" lon="5.42198">
        <ele>219.1</ele>
        <time>2015-04-08T11:47:02Z</time>
      </trkpt>
      <trkpt lat="43.22082" lon="5.42189">
        <ele>215.3</ele>
        <time>2015-04-08T11:47:20Z</time>
      </trkpt>
      <trkpt lat="43.22083" lon="5.42188">
        <ele>215.1</ele>
        <time>2015-04-08T11:47:21Z</time>
      </trkpt>
      <trkpt lat="43.22116" lon="5.4218">
        <ele>221.1</ele>
        <time>2015-04-08T11:48:07Z</time>
      </trkpt>
      <trkpt lat="43.22133" lon="5.42174">
        <ele>221.6</ele>
        <time>2015-04-08T11:48:25Z</time>
      </trkpt>
      <trkpt lat="43.22134" lon="5.42175">
        <ele>221.8</ele>
        <time>2015-04-08T11:48:26Z</time>
      </trkpt>
      <trkpt lat="43.22167" lon="5.42189">
        <ele>220.3</ele>
        <time>2015-04-08T11:48:58Z</time>
      </trkpt>
      <trkpt lat="43.22182" lon="5.422">
        <ele>216.1</ele>
        <time>2015-04-08T11:49:18Z</time>
      </trkpt>
      <trkpt lat="43.22197" lon="5.42212">
        <ele>213.1</ele>
        <time>2015-04-08T11:49:36Z</time>
      </trkpt>
      <trkpt lat="43.22198" lon="5.42213">
        <ele>212.8</ele>
        <time>2015-04-08T11:49:37Z</time>
      </trkpt>
      <trkpt lat="43.22226" lon="5.42239">
        <ele>207.6</ele>
        <time>2015-04-08T11:50:17Z</time>
      </trkpt>
      <trkpt lat="43.22237" lon="5.42258">
        <ele>205.3</ele>
        <time>2015-04-08T11:50:37Z</time>
      </trkpt>
      <trkpt lat="43.22237" lon="5.42259">
        <ele>204.8</ele>
        <time>2015-04-08T11:50:38Z</time>
      </trkpt>
      <trkpt lat="43.22259" lon="5.42293">
        <ele>198.8</ele>
        <time>2015-04-08T11:51:19Z</time>
      </trkpt>
      <trkpt lat="43.22271" lon="5.42309">
        <ele>199.8</ele>
        <time>2015-04-08T11:51:36Z</time>
      </trkpt>
      <trkpt lat="43.22284" lon="5.42326">
        <ele>203.8</ele>
        <time>2015-04-08T11:51:57Z</time>
      </trkpt>
      <trkpt lat="43.22285" lon="5.42326">
        <ele>203.8</ele>
        <time>2015-04-08T11:51:58Z</time>
      </trkpt>
      <trkpt lat="43.22304" lon="5.42366">
        <ele>210.3</ele>
        <time>2015-04-08T11:52:44Z</time>
      </trkpt>
      <trkpt lat="43.22318" lon="5.4238">
        <ele>212.3</ele>
        <time>2015-04-08T11:53:04Z</time>
      </trkpt>
      <trkpt lat="43.22318" lon="5.4238">
        <ele>212.1</ele>
        <time>2015-04-08T11:53:05Z</time>
      </trkpt>
      <trkpt lat="43.22349" lon="5.42399">
        <ele>213.8</ele>
        <time>2015-04-08T11:53:53Z</time>
      </trkpt>
      <trkpt lat="43.22367" lon="5.42403">
        <ele>215.1</ele>
        <time>2015-04-08T11:54:15Z</time>
      </trkpt>
      <trkpt lat="43.22368" lon="5.42403">
        <ele>215.1</ele>
        <time>2015-04-08T11:54:16Z</time>
      </trkpt>
      <trkpt lat="43.22401" lon="5.42393">
        <ele>217.3</ele>
        <time>2015-04-08T11:55:00Z</time>
      </trkpt>
      <trkpt lat="43.22418" lon="5.42394">
        <ele>220.6</ele>
        <time>2015-04-08T11:55:20Z</time>
      </trkpt>
      <trkpt lat="43.2242" lon="5.42393">
        <ele>220.6</ele>
        <time>2015-04-08T11:55:21Z</time>
      </trkpt>
      <trkpt lat="43.22453" lon="5.42399">
        <ele>225.8</ele>
        <time>2015-04-08T11:55:58Z</time>
      </trkpt>
      <trkpt lat="43.2247" lon="5.42399">
        <ele>224.1</ele>
        <time>2015-04-08T11:56:18Z</time>
      </trkpt>
      <trkpt lat="43.22487" lon="5.42394">
        <ele>226.8</ele>
        <time>2015-04-08T11:56:37Z</time>
      </trkpt>
      <trkpt lat="43.22488" lon="5.42393">
        <ele>227.1</ele>
        <time>2015-04-08T11:56:38Z</time>
      </trkpt>
      <trkpt lat="43.22517" lon="5.42369">
        <ele>233.6</ele>
        <time>2015-04-08T11:57:14Z</time>
      </trkpt>
      <trkpt lat="43.22533" lon="5.42378">
        <ele>237.3</ele>
        <time>2015-04-08T11:57:33Z</time>
      </trkpt>
      <trkpt lat="43.22544" lon="5.42396">
        <ele>238.6</ele>
        <time>2015-04-08T11:57:51Z</time>
      </trkpt>
      <trkpt lat="43.22545" lon="5.42397">
        <ele>238.8</ele>
        <time>2015-04-08T11:57:52Z</time>
      </trkpt>
      <trkpt lat="43.22566" lon="5.42432">
        <ele>241</ele>
        <time>2015-04-08T11:58:28Z</time>
      </trkpt>
      <trkpt lat="43.2258" lon="5.42446">
        <ele>242.8</ele>
        <time>2015-04-08T11:58:43Z</time>
      </trkpt>
      <trkpt lat="43.22597" lon="5.42456">
        <ele>241.8</ele>
        <time>2015-04-08T11:59:02Z</time>
      </trkpt>
      <trkpt lat="43.22598" lon="5.42456">
        <ele>241.8</ele>
        <time>2015-04-08T11:59:03Z</time>
      </trkpt>
      <trkpt lat="43.2263" lon="5.42454">
        <ele>242.3</ele>
        <time>2015-04-08T11:59:28Z</time>
      </trkpt>
      <trkpt lat="43.22648" lon="5.42455">
        <ele>243.1</ele>
        <time>2015-04-08T11:59:40Z</time>
      </trkpt>
      <trkpt lat="43.22664" lon="5.42448">
        <ele>243</ele>
        <time>2015-04-08T12:02:09Z</time>
      </trkpt>
      <trkpt lat="43.22665" lon="5.42448">
        <ele>242.8</ele>
        <time>2015-04-08T12:02:10Z</time>
      </trkpt>
      <trkpt lat="43.22683" lon="5.42448">
        <ele>243.5</ele>
        <time>2015-04-08T12:06:05Z</time>
      </trkpt>
      <trkpt lat="43.22718" lon="5.42445">
        <ele>243.1</ele>
        <time>2015-04-08T12:06:38Z</time>
      </trkpt>
      <trkpt lat="43.22735" lon="5.42448">
        <ele>244.1</ele>
        <time>2015-04-08T12:06:53Z</time>
      </trkpt>
      <trkpt lat="43.22751" lon="5.42457">
        <ele>244.6</ele>
        <time>2015-04-08T12:07:06Z</time>
      </trkpt>
      <trkpt lat="43.22752" lon="5.42458">
        <ele>244.5</ele>
        <time>2015-04-08T12:07:07Z</time>
      </trkpt>
      <trkpt lat="43.2276" lon="5.42503">
        <ele>239.5</ele>
        <time>2015-04-08T12:07:42Z</time>
      </trkpt>
      <trkpt lat="43.22767" lon="5.42524">
        <ele>240.3</ele>
        <time>2015-04-08T12:07:57Z</time>
      </trkpt>
      <trkpt lat="43.22776" lon="5.42544">
        <ele>240.5</ele>
        <time>2015-04-08T12:08:12Z</time>
      </trkpt>
      <trkpt lat="43.22777" lon="5.42546">
        <ele>240.6</ele>
        <time>2015-04-08T12:08:13Z</time>
      </trkpt>
      <trkpt lat="43.22797" lon="5.42582">
        <ele>235.5</ele>
        <time>2015-04-08T12:08:44Z</time>
      </trkpt>
      <trkpt lat="43.22803" lon="5.42604">
        <ele>235.3</ele>
        <time>2015-04-08T12:08:59Z</time>
      </trkpt>
      <trkpt lat="43.22807" lon="5.42627">
        <ele>236.1</ele>
        <time>2015-04-08T12:09:13Z</time>
      </trkpt>
      <trkpt lat="43.22807" lon="5.42628">
        <ele>236.1</ele>
        <time>2015-04-08T12:09:14Z</time>
      </trkpt>
      <trkpt lat="43.22822" lon="5.42669">
        <ele>235.6</ele>
        <time>2015-04-08T12:09:42Z</time>
      </trkpt>
      <trkpt lat="43.22831" lon="5.42688">
        <ele>233.6</ele>
        <time>2015-04-08T12:09:57Z</time>
      </trkpt>
      <trkpt lat="43.22844" lon="5.42706">
        <ele>233.1</ele>
        <time>2015-04-08T12:10:12Z</time>
      </trkpt>
      <trkpt lat="43.22861" lon="5.42708">
        <ele>230.1</ele>
        <time>2015-04-08T12:10:30Z</time>
      </trkpt>
      <trkpt lat="43.22862" lon="5.42708">
        <ele>229.8</ele>
        <time>2015-04-08T12:10:31Z</time>
      </trkpt>
      <trkpt lat="43.22896" lon="5.42712">
        <ele>227.6</ele>
        <time>2015-04-08T12:11:06Z</time>
      </trkpt>
      <trkpt lat="43.22912" lon="5.42721">
        <ele>229.3</ele>
        <time>2015-04-08T12:11:20Z</time>
      </trkpt>
      <trkpt lat="43.22928" lon="5.42732">
        <ele>227.6</ele>
        <time>2015-04-08T12:11:36Z</time>
      </trkpt>
      <trkpt lat="43.22929" lon="5.42733">
        <ele>227.6</ele>
        <time>2015-04-08T12:11:37Z</time>
      </trkpt>
      <trkpt lat="43.22962" lon="5.42732">
        <ele>222.3</ele>
        <time>2015-04-08T12:12:09Z</time>
      </trkpt>
      <trkpt lat="43.22979" lon="5.42725">
        <ele>220.3</ele>
        <time>2015-04-08T12:12:24Z</time>
      </trkpt>
      <trkpt lat="43.22996" lon="5.42718">
        <ele>219.1</ele>
        <time>2015-04-08T12:12:42Z</time>
      </trkpt>
      <trkpt lat="43.22997" lon="5.42717">
        <ele>218.8</ele>
        <time>2015-04-08T12:12:43Z</time>
      </trkpt>
      <trkpt lat="43.22987" lon="5.4274">
        <ele>216.8</ele>
        <time>2015-04-08T12:15:17Z</time>
      </trkpt>
      <trkpt lat="43.22988" lon="5.42743">
        <ele>218.1</ele>
        <time>2015-04-08T12:16:51Z</time>
      </trkpt>
      <trkpt lat="43.22989" lon="5.42743">
        <ele>218</ele>
        <time>2015-04-08T12:16:52Z</time>
      </trkpt>
      <trkpt lat="43.23018" lon="5.42717">
        <ele>218.3</ele>
        <time>2015-04-08T12:17:30Z</time>
      </trkpt>
      <trkpt lat="43.23034" lon="5.4271">
        <ele>219</ele>
        <time>2015-04-08T12:17:46Z</time>
      </trkpt>
      <trkpt lat="43.23052" lon="5.42709">
        <ele>220.8</ele>
        <time>2015-04-08T12:18:01Z</time>
      </trkpt>
      <trkpt lat="43.23053" lon="5.42709">
        <ele>221</ele>
        <time>2015-04-08T12:18:02Z</time>
      </trkpt>
      <trkpt lat="43.23087" lon="5.42706">
        <ele>221.1</ele>
        <time>2015-04-08T12:18:34Z</time>
      </trkpt>
      <trkpt lat="43.23104" lon="5.42706">
        <ele>222.1</ele>
        <time>2015-04-08T12:18:49Z</time>
      </trkpt>
      <trkpt lat="43.2312" lon="5.42716">
        <ele>222.6</ele>
        <time>2015-04-08T12:19:06Z</time>
      </trkpt>
      <trkpt lat="43.23121" lon="5.42717">
        <ele>222.8</ele>
        <time>2015-04-08T12:19:07Z</time>
      </trkpt>
      <trkpt lat="43.23153" lon="5.42719">
        <ele>221.1</ele>
        <time>2015-04-08T12:19:37Z</time>
      </trkpt>
      <trkpt lat="43.23167" lon="5.42704">
        <ele>218.3</ele>
        <time>2015-04-08T12:19:53Z</time>
      </trkpt>
      <trkpt lat="43.23181" lon="5.42689">
        <ele>216.8</ele>
        <time>2015-04-08T12:20:08Z</time>
      </trkpt>
      <trkpt lat="43.23181" lon="5.42688">
        <ele>216.6</ele>
        <time>2015-04-08T12:20:09Z</time>
      </trkpt>
      <trkpt lat="43.23205" lon="5.42655">
        <ele>211.1</ele>
        <time>2015-04-08T12:20:42Z</time>
      </trkpt>
      <trkpt lat="43.23203" lon="5.42678">
        <ele>206.6</ele>
        <time>2015-04-08T12:21:11Z</time>
      </trkpt>
      <trkpt lat="43.23202" lon="5.42679">
        <ele>207</ele>
        <time>2015-04-08T12:21:12Z</time>
      </trkpt>
      <trkpt lat="43.23191" lon="5.42723">
        <ele>202.8</ele>
        <time>2015-04-08T12:21:46Z</time>
      </trkpt>
      <trkpt lat="43.23186" lon="5.42745">
        <ele>201.8</ele>
        <time>2015-04-08T12:22:01Z</time>
      </trkpt>
      <trkpt lat="43.2318" lon="5.42767">
        <ele>201.5</ele>
        <time>2015-04-08T12:22:15Z</time>
      </trkpt>
      <trkpt lat="43.23179" lon="5.42769">
        <ele>201.3</ele>
        <time>2015-04-08T12:22:16Z</time>
      </trkpt>
      <trkpt lat="43.23152" lon="5.42795">
        <ele>198.5</ele>
        <time>2015-04-08T12:22:48Z</time>
      </trkpt>
      <trkpt lat="43.23135" lon="5.42801">
        <ele>198.3</ele>
        <time>2015-04-08T12:23:02Z</time>
      </trkpt>
      <trkpt lat="43.23118" lon="5.42809">
        <ele>194.6</ele>
        <time>2015-04-08T12:23:17Z</time>
      </trkpt>
      <trkpt lat="43.23117" lon="5.42809">
        <ele>194.8</ele>
        <time>2015-04-08T12:23:18Z</time>
      </trkpt>
      <trkpt lat="43.23084" lon="5.42815">
        <ele>197.6</ele>
        <time>2015-04-08T12:23:45Z</time>
      </trkpt>
      <trkpt lat="43.23067" lon="5.42818">
        <ele>196.3</ele>
        <time>2015-04-08T12:24:00Z</time>
      </trkpt>
      <trkpt lat="43.2305" lon="5.42814">
        <ele>195.3</ele>
        <time>2015-04-08T12:24:15Z</time>
      </trkpt>
      <trkpt lat="43.23033" lon="5.42809">
        <ele>192.6</ele>
        <time>2015-04-08T12:24:29Z</time>
      </trkpt>
      <trkpt lat="43.23032" lon="5.42809">
        <ele>192.3</ele>
        <time>2015-04-08T12:24:30Z</time>
      </trkpt>
      <trkpt lat="43.23005" lon="5.42833">
        <ele>186.3</ele>
        <time>2015-04-08T12:25:01Z</time>
      </trkpt>
      <trkpt lat="43.22996" lon="5.42854">
        <ele>182.6</ele>
        <time>2015-04-08T12:25:17Z</time>
      </trkpt>
      <trkpt lat="43.22993" lon="5.42879">
        <ele>181.3</ele>
        <time>2015-04-08T12:25:33Z</time>
      </trkpt>
      <trkpt lat="43.22992" lon="5.4288">
        <ele>181.1</ele>
        <time>2015-04-08T12:25:34Z</time>
      </trkpt>
      <trkpt lat="43.22992" lon="5.42904">
        <ele>174.3</ele>
        <time>2015-04-08T12:27:06Z</time>
      </trkpt>
      <trkpt lat="43.22984" lon="5.42947">
        <ele>176.1</ele>
        <time>2015-04-08T12:27:28Z</time>
      </trkpt>
      <trkpt lat="43.22974" lon="5.42965">
        <ele>175.3</ele>
        <time>2015-04-08T12:27:41Z</time>
      </trkpt>
      <trkpt lat="43.22982" lon="5.42988">
        <ele>175.8</ele>
        <time>2015-04-08T12:27:53Z</time>
      </trkpt>
      <trkpt lat="43.22994" lon="5.43003">
        <ele>175.8</ele>
        <time>2015-04-08T12:28:04Z</time>
      </trkpt>
      <trkpt lat="43.23007" lon="5.43018">
        <ele>174.6</ele>
        <time>2015-04-08T12:28:16Z</time>
      </trkpt>
      <trkpt lat="43.23008" lon="5.43019">
        <ele>174.6</ele>
        <time>2015-04-08T12:28:17Z</time>
      </trkpt>
      <trkpt lat="43.23024" lon="5.43059">
        <ele>169.8</ele>
        <time>2015-04-08T12:28:41Z</time>
      </trkpt>
      <trkpt lat="43.23031" lon="5.4308">
        <ele>168.3</ele>
        <time>2015-04-08T12:28:53Z</time>
      </trkpt>
      <trkpt lat="43.23037" lon="5.43103">
        <ele>168.8</ele>
        <time>2015-04-08T12:29:05Z</time>
      </trkpt>
      <trkpt lat="43.23043" lon="5.43125">
        <ele>168.8</ele>
        <time>2015-04-08T12:29:17Z</time>
      </trkpt>
      <trkpt lat="43.23043" lon="5.43126">
        <ele>168.8</ele>
        <time>2015-04-08T12:29:18Z</time>
      </trkpt>
      <trkpt lat="43.23057" lon="5.43168">
        <ele>169.5</ele>
        <time>2015-04-08T12:29:41Z</time>
      </trkpt>
      <trkpt lat="43.23065" lon="5.43188">
        <ele>167.6</ele>
        <time>2015-04-08T12:29:56Z</time>
      </trkpt>
      <trkpt lat="43.23078" lon="5.43204">
        <ele>167.8</ele>
        <time>2015-04-08T12:30:10Z</time>
      </trkpt>
      <trkpt lat="43.23092" lon="5.43219">
        <ele>167.1</ele>
        <time>2015-04-08T12:30:26Z</time>
      </trkpt>
      <trkpt lat="43.23093" lon="5.4322">
        <ele>167.1</ele>
        <time>2015-04-08T12:30:27Z</time>
      </trkpt>
      <trkpt lat="43.23126" lon="5.43216">
        <ele>165</ele>
        <time>2015-04-08T12:30:56Z</time>
      </trkpt>
      <trkpt lat="43.23143" lon="5.43213">
        <ele>162.6</ele>
        <time>2015-04-08T12:31:11Z</time>
      </trkpt>
      <trkpt lat="43.2316" lon="5.43215">
        <ele>163.1</ele>
        <time>2015-04-08T12:31:24Z</time>
      </trkpt>
      <trkpt lat="43.23177" lon="5.43216">
        <ele>163.3</ele>
        <time>2015-04-08T12:31:36Z</time>
      </trkpt>
      <trkpt lat="43.23179" lon="5.43216">
        <ele>163.3</ele>
        <time>2015-04-08T12:31:37Z</time>
      </trkpt>
    </trkseg>
  </trk>
</gpx>